Boydell, Arkansas
Current Conditions -  °F | °C
As of 6:09 PM on Thursday 18 Dec 2014 (Local Time) from KLLQ Reporting Station
Overcast Overcast  
Wind Chill: 47°   Ceiling: 800
Heat Index: 47°   Visibility: 10mi
Dew Point: 43°   Wind: 0mph
Humidity: 86%   Direction: NA
Pressure: 30.18"   Gusts: NA
Location:  33.3267°N, 91.5515°W
Report Text: KLLQ 190009Z AUTO 00000KT 10SM BKN008 OVC012 08/06 A3018 RMK AO2 T00830061
Loading
Personal Weather Stations






























Interactive Weather Map New forecast layout! Learn more

10-Day Weather Forecast

Advertisements
Track Severe Weather on mobile